DLH1525 EFHK-EKCH
Flight info
| Callsign | DLH1525 |
|---|---|
| Flight time | 1h 27m |
| Altitude | 40000 |
| Route | NUNTO5C NUNTO Y369 REKDO DCT KOSKA DCT KOTAM L990 EKRAL P605 TIDVU TIDVU3A |
| Aircraft | A346/H-SDE2E3FGHIJ3J4J5M1RWXY/LB1D1 |
Departure
| Time | 2026-04-22 19:18 |
|---|---|
| Airport | Helsinki Vantaa Airport (EFHK) |
Arrival
| Time | 2026-04-22 20:46 |
|---|---|
| Airport | Copenhagen Kastrup Airport (EKCH) |
| Time | Latitude | Longitude | Altitude | Speed | Heading |
|---|---|---|---|---|---|
| 2026-04-22 18:16 | 60.31474 | 24.95593 | 169 ft | 0 kts | 135° |
| 2026-04-22 19:03 | 60.31476 | 24.95590 | 169 ft | 3 kts | 135° |
| 2026-04-22 19:03 | 60.31485 | 24.95570 | 169 ft | 4 kts | 133° |
| 2026-04-22 19:03 | 60.31502 | 24.95537 | 168 ft | 4 kts | 152° |
| 2026-04-22 19:04 | 60.31516 | 24.95532 | 168 ft | 4 kts | 181° |
| 2026-04-22 19:04 | 60.31536 | 24.95542 | 168 ft | 4 kts | 213° |
| 2026-04-22 19:04 | 60.31555 | 24.95577 | 169 ft | 4 kts | 229° |
| 2026-04-22 19:04 | 60.31563 | 24.95597 | 169 ft | 0 kts | 227° |
| 2026-04-22 19:09 | 60.31563 | 24.95596 | 169 ft | 0 kts | 227° |
| 2026-04-22 19:10 | 60.31554 | 24.95576 | 168 ft | 4 kts | 227° |
| 2026-04-22 19:10 | 60.31529 | 24.95521 | 168 ft | 7 kts | 227° |
| 2026-04-22 19:10 | 60.31495 | 24.95446 | 168 ft | 5 kts | 227° |
| 2026-04-22 19:10 | 60.31468 | 24.95387 | 167 ft | 5 kts | 227° |
| 2026-04-22 19:11 | 60.31453 | 24.95331 | 167 ft | 5 kts | 264° |
| 2026-04-22 19:11 | 60.31459 | 24.95271 | 166 ft | 3 kts | 289° |
| 2026-04-22 19:11 | 60.31463 | 24.95222 | 166 ft | 4 kts | 267° |
| 2026-04-22 19:11 | 60.31448 | 24.95149 | 165 ft | 7 kts | 238° |
| 2026-04-22 19:12 | 60.31434 | 24.95050 | 165 ft | 7 kts | 276° |
| 2026-04-22 19:12 | 60.31443 | 24.94952 | 164 ft | 7 kts | 275° |
| 2026-04-22 19:12 | 60.31425 | 24.94858 | 163 ft | 9 kts | 233° |
| 2026-04-22 19:12 | 60.31378 | 24.94747 | 163 ft | 12 kts | 227° |
| 2026-04-22 19:13 | 60.31313 | 24.94607 | 162 ft | 15 kts | 227° |
| 2026-04-22 19:13 | 60.31235 | 24.94432 | 161 ft | 19 kts | 228° |
| 2026-04-22 19:13 | 60.31143 | 24.94228 | 160 ft | 19 kts | 227° |
| 2026-04-22 19:13 | 60.31089 | 24.94112 | 159 ft | 10 kts | 227° |
| 2026-04-22 19:14 | 60.31051 | 24.94024 | 158 ft | 6 kts | 234° |
| 2026-04-22 19:14 | 60.31034 | 24.93951 | 158 ft | 4 kts | 257° |
| 2026-04-22 19:14 | 60.31033 | 24.93931 | 158 ft | 0 kts | 267° |
| 2026-04-22 19:15 | 60.31033 | 24.93923 | 158 ft | 2 kts | 270° |
| 2026-04-22 19:16 | 60.31037 | 24.93877 | 157 ft | 5 kts | 288° |
| 2026-04-22 19:16 | 60.31060 | 24.93799 | 157 ft | 8 kts | 310° |
| 2026-04-22 19:16 | 60.31113 | 24.93730 | 155 ft | 6 kts | 345° |
| 2026-04-22 19:16 | 60.31164 | 24.93743 | 155 ft | 8 kts | 27° |
| 2026-04-22 19:17 | 60.31206 | 24.93810 | 157 ft | 9 kts | 41° |
| 2026-04-22 19:17 | 60.31234 | 24.93864 | 157 ft | 0 kts | 46° |
| 2026-04-22 19:17 | 60.31366 | 24.94159 | 160 ft | 71 kts | 48° |
| 2026-04-22 19:18 | 60.31911 | 24.95349 | 168 ft | 156 kts | 47° |
| 2026-04-22 19:18 | 60.32749 | 24.97250 | 543 ft | 191 kts | 43° |
| 2026-04-22 19:18 | 60.33615 | 24.99239 | 1735 ft | 184 kts | 39° |
| 2026-04-22 19:18 | 60.34502 | 25.01165 | 2852 ft | 194 kts | 38° |
| 2026-04-22 19:19 | 60.35491 | 25.03257 | 3531 ft | 217 kts | 39° |
| 2026-04-22 19:19 | 60.36574 | 25.05590 | 4014 ft | 235 kts | 40° |
| 2026-04-22 19:19 | 60.37699 | 25.08064 | 4879 ft | 240 kts | 40° |
| 2026-04-22 19:19 | 60.38826 | 25.10539 | 5985 ft | 237 kts | 37° |
| 2026-04-22 19:20 | 60.40192 | 25.12301 | 6911 ft | 232 kts | 15° |
| 2026-04-22 19:20 | 60.41776 | 25.12797 | 7856 ft | 231 kts | 360° |
| 2026-04-22 19:20 | 60.43355 | 25.12860 | 8969 ft | 228 kts | 359° |
| 2026-04-22 19:20 | 60.44939 | 25.12930 | 10053 ft | 228 kts | 359° |
| 2026-04-22 19:21 | 60.46527 | 25.12882 | 10957 ft | 230 kts | 351° |
| 2026-04-22 19:21 | 60.48056 | 25.11810 | 11777 ft | 238 kts | 334° |
| 2026-04-22 19:21 | 60.49360 | 25.09604 | 12617 ft | 254 kts | 317° |
| 2026-04-22 19:21 | 60.50252 | 25.06245 | 13057 ft | 292 kts | 297° |
| 2026-04-22 19:22 | 60.50418 | 25.01817 | 13387 ft | 342 kts | 272° |
| 2026-04-22 19:22 | 60.49504 | 24.97018 | 13744 ft | 388 kts | 249° |
| 2026-04-22 19:22 | 60.47902 | 24.92407 | 14250 ft | 406 kts | 241° |
| 2026-04-22 19:22 | 60.46148 | 24.87941 | 14921 ft | 414 kts | 240° |
| 2026-04-22 19:23 | 60.44323 | 24.83344 | 15679 ft | 419 kts | 241° |
| 2026-04-22 19:23 | 60.42503 | 24.78679 | 16316 ft | 427 kts | 242° |
| 2026-04-22 19:23 | 60.40648 | 24.73821 | 16627 ft | 444 kts | 242° |
| 2026-04-22 19:23 | 60.38743 | 24.68777 | 17039 ft | 457 kts | 242° |
| 2026-04-22 19:24 | 60.36795 | 24.63629 | 17714 ft | 462 kts | 242° |
| 2026-04-22 19:24 | 60.34828 | 24.58440 | 18418 ft | 466 kts | 242° |
| 2026-04-22 19:24 | 60.32842 | 24.53197 | 19066 ft | 470 kts | 242° |
| 2026-04-22 19:24 | 60.30848 | 24.47937 | 19717 ft | 474 kts | 242° |
| 2026-04-22 19:25 | 60.28833 | 24.42631 | 20389 ft | 477 kts | 242° |
| 2026-04-22 19:25 | 60.26831 | 24.37368 | 21047 ft | 479 kts | 242° |
| 2026-04-22 19:25 | 60.24797 | 24.32018 | 21768 ft | 481 kts | 242° |
| 2026-04-22 19:25 | 60.22740 | 24.26641 | 22458 ft | 484 kts | 242° |
| 2026-04-22 19:26 | 60.20677 | 24.21263 | 23075 ft | 488 kts | 241° |
| 2026-04-22 19:26 | 60.18590 | 24.15830 | 23651 ft | 492 kts | 241° |
| 2026-04-22 19:26 | 60.16491 | 24.10373 | 24144 ft | 496 kts | 241° |
| 2026-04-22 19:26 | 60.14367 | 24.04869 | 24641 ft | 500 kts | 241° |
| 2026-04-22 19:27 | 60.12227 | 23.99340 | 25128 ft | 504 kts | 241° |
| 2026-04-22 19:27 | 60.10113 | 23.93712 | 25548 ft | 505 kts | 243° |
| 2026-04-22 19:27 | 60.08172 | 23.87938 | 26018 ft | 504 kts | 246° |
| 2026-04-22 19:27 | 60.06380 | 23.81896 | 26432 ft | 503 kts | 250° |
| 2026-04-22 19:28 | 60.04735 | 23.75671 | 26919 ft | 505 kts | 251° |
| 2026-04-22 19:28 | 60.03100 | 23.69394 | 27396 ft | 509 kts | 251° |
| 2026-04-22 19:28 | 60.01450 | 23.63077 | 27860 ft | 513 kts | 251° |
| 2026-04-22 19:28 | 59.99782 | 23.56725 | 28293 ft | 517 kts | 251° |
| 2026-04-22 19:29 | 59.98095 | 23.50334 | 28741 ft | 521 kts | 251° |
| 2026-04-22 19:29 | 59.96412 | 23.43986 | 29176 ft | 525 kts | 251° |
| 2026-04-22 19:29 | 59.94692 | 23.37521 | 29619 ft | 528 kts | 251° |
| 2026-04-22 19:29 | 59.92955 | 23.31016 | 29990 ft | 532 kts | 251° |
| 2026-04-22 19:30 | 59.91777 | 23.26615 | 30198 ft | 534 kts | 251° |
| 2026-04-22 19:30 | 59.89448 | 23.17940 | 30598 ft | 537 kts | 251° |
| 2026-04-22 19:30 | 59.87676 | 23.11360 | 30844 ft | 539 kts | 250° |
| 2026-04-22 19:30 | 59.85897 | 23.04778 | 31138 ft | 541 kts | 250° |
| 2026-04-22 19:31 | 59.84102 | 22.98161 | 31474 ft | 541 kts | 250° |
| 2026-04-22 19:31 | 59.82310 | 22.91577 | 31784 ft | 541 kts | 250° |
| 2026-04-22 19:31 | 59.80515 | 22.84998 | 32147 ft | 540 kts | 250° |
| 2026-04-22 19:31 | 59.78717 | 22.78430 | 32517 ft | 540 kts | 250° |
| 2026-04-22 19:32 | 59.76921 | 22.71883 | 32909 ft | 539 kts | 250° |
| 2026-04-22 19:32 | 59.75124 | 22.65346 | 33293 ft | 538 kts | 250° |
| 2026-04-22 19:32 | 59.73344 | 22.58888 | 33673 ft | 537 kts | 250° |
| 2026-04-22 19:32 | 59.71546 | 22.52382 | 34040 ft | 537 kts | 250° |
| 2026-04-22 19:33 | 59.69747 | 22.45897 | 34372 ft | 536 kts | 250° |
| 2026-04-22 19:33 | 59.67950 | 22.39433 | 34708 ft | 534 kts | 250° |
| 2026-04-22 19:33 | 59.66154 | 22.32997 | 35059 ft | 533 kts | 249° |
| 2026-04-22 19:33 | 59.64363 | 22.26597 | 35398 ft | 531 kts | 249° |
| 2026-04-22 19:34 | 59.62567 | 22.20197 | 35718 ft | 529 kts | 249° |
| 2026-04-22 19:34 | 59.60781 | 22.13847 | 36057 ft | 528 kts | 249° |
| 2026-04-22 19:34 | 59.58989 | 22.07498 | 36368 ft | 527 kts | 249° |
| 2026-04-22 19:34 | 59.57203 | 22.01185 | 36678 ft | 525 kts | 249° |
| 2026-04-22 19:35 | 59.55425 | 21.94907 | 36896 ft | 524 kts | 249° |
| 2026-04-22 19:35 | 59.53669 | 21.88728 | 37176 ft | 522 kts | 248° |
| 2026-04-22 19:35 | 59.52465 | 21.84506 | 37376 ft | 521 kts | 248° |
| 2026-04-22 19:35 | 59.50108 | 21.76262 | 37722 ft | 519 kts | 248° |
| 2026-04-22 19:36 | 59.48338 | 21.70073 | 38060 ft | 515 kts | 248° |
| 2026-04-22 19:36 | 59.46580 | 21.63940 | 38404 ft | 512 kts | 248° |
| 2026-04-22 19:36 | 59.44830 | 21.57850 | 38689 ft | 509 kts | 248° |
| 2026-04-22 19:36 | 59.43083 | 21.51775 | 38917 ft | 508 kts | 248° |
| 2026-04-22 19:37 | 59.41344 | 21.45738 | 39140 ft | 506 kts | 248° |
| 2026-04-22 19:37 | 59.39608 | 21.39717 | 39331 ft | 506 kts | 248° |
| 2026-04-22 19:37 | 59.37894 | 21.33777 | 39513 ft | 505 kts | 248° |
| 2026-04-22 19:37 | 59.36161 | 21.27778 | 39679 ft | 504 kts | 247° |
| 2026-04-22 19:38 | 59.34426 | 21.21772 | 39857 ft | 504 kts | 247° |
| 2026-04-22 19:38 | 59.32697 | 21.15788 | 40010 ft | 504 kts | 247° |
| 2026-04-22 19:38 | 59.30966 | 21.09803 | 40145 ft | 504 kts | 247° |
| 2026-04-22 19:39 | 59.27506 | 20.97829 | 40370 ft | 506 kts | 246° |
| 2026-04-22 19:39 | 59.25772 | 20.91830 | 40497 ft | 506 kts | 246° |
| 2026-04-22 19:39 | 59.24040 | 20.85839 | 40623 ft | 507 kts | 246° |
| 2026-04-22 19:39 | 59.22304 | 20.79834 | 40739 ft | 507 kts | 246° |
| 2026-04-22 19:40 | 59.20563 | 20.73813 | 40852 ft | 508 kts | 246° |
| 2026-04-22 19:40 | 59.18825 | 20.67805 | 40980 ft | 508 kts | 246° |
| 2026-04-22 19:40 | 59.17086 | 20.61794 | 41088 ft | 508 kts | 246° |
| 2026-04-22 19:40 | 59.15346 | 20.55784 | 41196 ft | 509 kts | 246° |
| 2026-04-22 19:41 | 59.13605 | 20.49772 | 41288 ft | 509 kts | 246° |
| 2026-04-22 19:41 | 59.10103 | 20.37752 | 41398 ft | 514 kts | 242° |
| 2026-04-22 19:41 | 59.07808 | 20.32415 | 41349 ft | 528 kts | 223° |
| 2026-04-22 19:42 | 59.04716 | 20.28494 | 41385 ft | 534 kts | 210° |
| 2026-04-22 19:42 | 58.98348 | 20.21116 | 41385 ft | 532 kts | 219° |
| 2026-04-22 19:43 | 58.90154 | 20.06798 | 41389 ft | 526 kts | 230° |
| 2026-04-22 19:43 | 58.85173 | 19.96510 | 41373 ft | 522 kts | 231° |
| 2026-04-22 19:44 | 58.80269 | 19.86193 | 41366 ft | 520 kts | 231° |
| 2026-04-22 19:44 | 58.75365 | 19.75890 | 41382 ft | 520 kts | 231° |
| 2026-04-22 19:45 | 58.71282 | 19.67344 | 41380 ft | 520 kts | 231° |
| 2026-04-22 19:45 | 58.65573 | 19.55447 | 41369 ft | 518 kts | 231° |
| 2026-04-22 19:46 | 58.61479 | 19.46956 | 41367 ft | 515 kts | 230° |
| 2026-04-22 19:46 | 58.56625 | 19.36932 | 41376 ft | 515 kts | 230° |
| 2026-04-22 19:47 | 58.51739 | 19.26883 | 41374 ft | 515 kts | 230° |
| 2026-04-22 19:47 | 58.46847 | 19.16866 | 41381 ft | 515 kts | 230° |
| 2026-04-22 19:48 | 58.41945 | 19.06868 | 41369 ft | 515 kts | 230° |
| 2026-04-22 19:48 | 58.37031 | 18.96896 | 41373 ft | 515 kts | 230° |
| 2026-04-22 19:49 | 58.32116 | 18.86963 | 41333 ft | 514 kts | 230° |
| 2026-04-22 19:49 | 58.27196 | 18.77065 | 41334 ft | 514 kts | 230° |
| 2026-04-22 19:50 | 58.22269 | 18.67196 | 41347 ft | 514 kts | 229° |
| 2026-04-22 19:50 | 58.17343 | 18.57363 | 41348 ft | 518 kts | 229° |
| 2026-04-22 19:51 | 58.12356 | 18.47460 | 41348 ft | 518 kts | 229° |
| 2026-04-22 19:51 | 58.07369 | 18.37600 | 41347 ft | 518 kts | 229° |
| 2026-04-22 19:52 | 58.02366 | 18.27750 | 41353 ft | 518 kts | 229° |
| 2026-04-22 19:52 | 57.97395 | 18.17996 | 41348 ft | 521 kts | 229° |
| 2026-04-22 19:53 | 57.92350 | 18.08147 | 41353 ft | 522 kts | 228° |
| 2026-04-22 19:53 | 57.87291 | 17.98317 | 41355 ft | 523 kts | 228° |
| 2026-04-22 19:54 | 57.82222 | 17.88508 | 41359 ft | 523 kts | 228° |
| 2026-04-22 19:54 | 57.77143 | 17.78716 | 41340 ft | 522 kts | 227° |
| 2026-04-22 19:55 | 57.72075 | 17.68973 | 41347 ft | 522 kts | 227° |
| 2026-04-22 19:55 | 57.66984 | 17.59259 | 41347 ft | 522 kts | 227° |
| 2026-04-22 19:56 | 57.61895 | 17.49583 | 41348 ft | 522 kts | 227° |
| 2026-04-22 19:56 | 57.56786 | 17.39906 | 41355 ft | 522 kts | 227° |
| 2026-04-22 19:57 | 57.51714 | 17.30339 | 41354 ft | 522 kts | 227° |
| 2026-04-22 19:57 | 57.46602 | 17.20735 | 41368 ft | 522 kts | 227° |
| 2026-04-22 19:58 | 57.41480 | 17.11154 | 41373 ft | 522 kts | 227° |
| 2026-04-22 19:58 | 57.36340 | 17.01578 | 41368 ft | 522 kts | 226° |
| 2026-04-22 20:00 | 57.18462 | 16.68581 | 40389 ft | 511 kts | 225° |
| 2026-04-22 20:00 | 57.15937 | 16.63961 | 40139 ft | 511 kts | 225° |
| 2026-04-22 20:01 | 57.13407 | 16.59340 | 39900 ft | 511 kts | 225° |
| 2026-04-22 20:01 | 57.10878 | 16.54733 | 39662 ft | 509 kts | 225° |
| 2026-04-22 20:01 | 57.08365 | 16.50154 | 39437 ft | 507 kts | 225° |
| 2026-04-22 20:01 | 57.05889 | 16.45655 | 39206 ft | 505 kts | 225° |
| 2026-04-22 20:02 | 57.03380 | 16.41112 | 38965 ft | 504 kts | 225° |
| 2026-04-22 20:02 | 57.00880 | 16.36594 | 38732 ft | 504 kts | 225° |
| 2026-04-22 20:02 | 56.98377 | 16.32082 | 38444 ft | 505 kts | 225° |
| 2026-04-22 20:02 | 56.95870 | 16.27569 | 38136 ft | 505 kts | 225° |
| 2026-04-22 20:03 | 56.93360 | 16.23061 | 37778 ft | 505 kts | 225° |
| 2026-04-22 20:03 | 56.90842 | 16.18545 | 37395 ft | 505 kts | 225° |
| 2026-04-22 20:03 | 56.88331 | 16.14050 | 37084 ft | 505 kts | 225° |
| 2026-04-22 20:04 | 56.83284 | 16.05033 | 36583 ft | 508 kts | 225° |
| 2026-04-22 20:04 | 56.80756 | 16.00538 | 36109 ft | 506 kts | 225° |
| 2026-04-22 20:04 | 56.78230 | 15.96053 | 35736 ft | 507 kts | 225° |
| 2026-04-22 20:04 | 56.75703 | 15.91570 | 35332 ft | 506 kts | 224° |
| 2026-04-22 20:05 | 56.73175 | 15.87097 | 34947 ft | 505 kts | 224° |
| 2026-04-22 20:05 | 56.70649 | 15.82638 | 34566 ft | 505 kts | 224° |
| 2026-04-22 20:05 | 56.68122 | 15.78189 | 34174 ft | 506 kts | 224° |
| 2026-04-22 20:05 | 56.65588 | 15.73734 | 33743 ft | 506 kts | 224° |
| 2026-04-22 20:06 | 56.63091 | 15.69348 | 33381 ft | 506 kts | 224° |
| 2026-04-22 20:06 | 56.60555 | 15.64906 | 32897 ft | 506 kts | 224° |
| 2026-04-22 20:06 | 56.58010 | 15.60459 | 32333 ft | 507 kts | 224° |
| 2026-04-22 20:06 | 56.55468 | 15.56018 | 31741 ft | 507 kts | 225° |
| 2026-04-22 20:07 | 56.53090 | 15.51297 | 31265 ft | 503 kts | 231° |
| 2026-04-22 20:07 | 56.50863 | 15.46432 | 30745 ft | 501 kts | 232° |
| 2026-04-22 20:07 | 56.48664 | 15.41521 | 30193 ft | 501 kts | 232° |
| 2026-04-22 20:07 | 56.46467 | 15.36626 | 29534 ft | 500 kts | 232° |
| 2026-04-22 20:08 | 56.44265 | 15.31767 | 28942 ft | 498 kts | 232° |
| 2026-04-22 20:08 | 56.42059 | 15.26940 | 28360 ft | 496 kts | 232° |
| 2026-04-22 20:08 | 56.39882 | 15.22209 | 27795 ft | 494 kts | 232° |
| 2026-04-22 20:08 | 56.37687 | 15.17458 | 27214 ft | 491 kts | 232° |
| 2026-04-22 20:09 | 56.35497 | 15.12735 | 26646 ft | 489 kts | 232° |
| 2026-04-22 20:09 | 56.33316 | 15.08044 | 26038 ft | 487 kts | 232° |
| 2026-04-22 20:09 | 56.31139 | 15.03368 | 25486 ft | 484 kts | 231° |
| 2026-04-22 20:09 | 56.28985 | 14.98756 | 24967 ft | 481 kts | 231° |
| 2026-04-22 20:10 | 56.26832 | 14.94155 | 24392 ft | 479 kts | 231° |
| 2026-04-22 20:10 | 56.24688 | 14.89585 | 23875 ft | 475 kts | 231° |
| 2026-04-22 20:10 | 56.22568 | 14.85074 | 23372 ft | 469 kts | 231° |
| 2026-04-22 20:10 | 56.20480 | 14.80638 | 22939 ft | 462 kts | 231° |
| 2026-04-22 20:11 | 56.18409 | 14.76246 | 22501 ft | 456 kts | 231° |
| 2026-04-22 20:11 | 56.16365 | 14.71921 | 22110 ft | 450 kts | 232° |
| 2026-04-22 20:11 | 56.14345 | 14.67653 | 21715 ft | 444 kts | 232° |
| 2026-04-22 20:11 | 56.12354 | 14.63455 | 21320 ft | 439 kts | 232° |
| 2026-04-22 20:12 | 56.10384 | 14.59306 | 20935 ft | 434 kts | 232° |
| 2026-04-22 20:12 | 56.08435 | 14.55209 | 20546 ft | 429 kts | 232° |
| 2026-04-22 20:12 | 56.07155 | 14.52521 | 20282 ft | 426 kts | 232° |
| 2026-04-22 20:12 | 56.04610 | 14.47187 | 19778 ft | 421 kts | 232° |
| 2026-04-22 20:13 | 56.02708 | 14.43207 | 19408 ft | 417 kts | 232° |
| 2026-04-22 20:13 | 56.00821 | 14.39264 | 19021 ft | 414 kts | 232° |
| 2026-04-22 20:13 | 55.98957 | 14.35380 | 18646 ft | 410 kts | 233° |
| 2026-04-22 20:13 | 55.97100 | 14.31518 | 18286 ft | 406 kts | 233° |
| 2026-04-22 20:14 | 55.95270 | 14.27712 | 17875 ft | 401 kts | 233° |
| 2026-04-22 20:14 | 55.93460 | 14.23946 | 17521 ft | 396 kts | 232° |
| 2026-04-22 20:14 | 55.91670 | 14.20235 | 17156 ft | 392 kts | 232° |
| 2026-04-22 20:14 | 55.89890 | 14.16554 | 16782 ft | 389 kts | 232° |
| 2026-04-22 20:15 | 55.88124 | 14.12908 | 16196 ft | 389 kts | 232° |
| 2026-04-22 20:15 | 55.86345 | 14.09236 | 15584 ft | 391 kts | 232° |
| 2026-04-22 20:15 | 55.84573 | 14.05586 | 15189 ft | 388 kts | 232° |
| 2026-04-22 20:15 | 55.82834 | 14.02012 | 14746 ft | 385 kts | 233° |
| 2026-04-22 20:16 | 55.81084 | 13.98420 | 14309 ft | 382 kts | 233° |
| 2026-04-22 20:16 | 55.79349 | 13.94864 | 13844 ft | 379 kts | 233° |
| 2026-04-22 20:16 | 55.77621 | 13.91327 | 13330 ft | 377 kts | 233° |
| 2026-04-22 20:16 | 55.75906 | 13.87819 | 12867 ft | 374 kts | 233° |
| 2026-04-22 20:17 | 55.74203 | 13.84345 | 12597 ft | 372 kts | 233° |
| 2026-04-22 20:17 | 55.72502 | 13.80878 | 12353 ft | 372 kts | 233° |
| 2026-04-22 20:17 | 55.70801 | 13.77416 | 12107 ft | 371 kts | 233° |
| 2026-04-22 20:17 | 55.69105 | 13.73968 | 11868 ft | 369 kts | 233° |
| 2026-04-22 20:18 | 55.67410 | 13.70529 | 11654 ft | 368 kts | 233° |
| 2026-04-22 20:18 | 55.65749 | 13.67165 | 11338 ft | 367 kts | 233° |
| 2026-04-22 20:18 | 55.64068 | 13.63764 | 10987 ft | 365 kts | 233° |
| 2026-04-22 20:18 | 55.62399 | 13.60393 | 10659 ft | 360 kts | 233° |
| 2026-04-22 20:19 | 55.60776 | 13.57128 | 10579 ft | 345 kts | 233° |
| 2026-04-22 20:19 | 55.59217 | 13.53993 | 10476 ft | 332 kts | 233° |
| 2026-04-22 20:19 | 55.57720 | 13.50985 | 10391 ft | 319 kts | 233° |
| 2026-04-22 20:19 | 55.56278 | 13.48088 | 10295 ft | 307 kts | 234° |
| 2026-04-22 20:20 | 55.54895 | 13.45309 | 10210 ft | 296 kts | 234° |
| 2026-04-22 20:20 | 55.53544 | 13.42594 | 9855 ft | 294 kts | 234° |
| 2026-04-22 20:20 | 55.52192 | 13.39879 | 9531 ft | 292 kts | 234° |
| 2026-04-22 20:20 | 55.50871 | 13.37232 | 9232 ft | 290 kts | 234° |
| 2026-04-22 20:21 | 55.49540 | 13.34571 | 8925 ft | 288 kts | 234° |
| 2026-04-22 20:21 | 55.48216 | 13.31926 | 8629 ft | 286 kts | 234° |
| 2026-04-22 20:21 | 55.46908 | 13.29299 | 8355 ft | 283 kts | 236° |
| 2026-04-22 20:21 | 55.45782 | 13.26493 | 8073 ft | 278 kts | 246° |
| 2026-04-22 20:22 | 55.44895 | 13.23422 | 8076 ft | 282 kts | 251° |
| 2026-04-22 20:22 | 55.44076 | 13.20268 | 8104 ft | 283 kts | 251° |
| 2026-04-22 20:22 | 55.43258 | 13.17094 | 8123 ft | 284 kts | 251° |
| 2026-04-22 20:22 | 55.42437 | 13.13934 | 8163 ft | 284 kts | 251° |
| 2026-04-22 20:23 | 55.41605 | 13.10763 | 8211 ft | 284 kts | 251° |
| 2026-04-22 20:23 | 55.40774 | 13.07609 | 8211 ft | 284 kts | 251° |
| 2026-04-22 20:23 | 55.39939 | 13.04441 | 7949 ft | 286 kts | 250° |
| 2026-04-22 20:23 | 55.38907 | 13.01469 | 7593 ft | 292 kts | 234° |
| 2026-04-22 20:24 | 55.37387 | 12.99085 | 7333 ft | 293 kts | 221° |
| 2026-04-22 20:24 | 55.35716 | 12.97044 | 7039 ft | 292 kts | 219° |
| 2026-04-22 20:24 | 55.34035 | 12.95056 | 6709 ft | 290 kts | 218° |
| 2026-04-22 20:24 | 55.32390 | 12.93023 | 6383 ft | 286 kts | 226° |
| 2026-04-22 20:25 | 55.31317 | 12.90245 | 5969 ft | 269 kts | 261° |
| 2026-04-22 20:25 | 55.31262 | 12.87088 | 5662 ft | 252 kts | 289° |
| 2026-04-22 20:25 | 55.32005 | 12.84387 | 5330 ft | 243 kts | 309° |
| 2026-04-22 20:25 | 55.32917 | 12.81891 | 5048 ft | 243 kts | 299° |
| 2026-04-22 20:26 | 55.33572 | 12.79204 | 4884 ft | 236 kts | 296° |
| 2026-04-22 20:26 | 55.34156 | 12.76545 | 4714 ft | 229 kts | 295° |
| 2026-04-22 20:26 | 55.34706 | 12.73991 | 4496 ft | 225 kts | 295° |
| 2026-04-22 20:26 | 55.35261 | 12.71428 | 4211 ft | 224 kts | 295° |
| 2026-04-22 20:27 | 55.35821 | 12.68878 | 3932 ft | 222 kts | 295° |
| 2026-04-22 20:27 | 55.36386 | 12.66351 | 3648 ft | 221 kts | 295° |
| 2026-04-22 20:27 | 55.36953 | 12.63833 | 3338 ft | 221 kts | 295° |
| 2026-04-22 20:27 | 55.37524 | 12.61323 | 3066 ft | 219 kts | 295° |
| 2026-04-22 20:28 | 55.38093 | 12.58840 | 3033 ft | 219 kts | 295° |
| 2026-04-22 20:28 | 55.38670 | 12.56331 | 3026 ft | 220 kts | 295° |
| 2026-04-22 20:28 | 55.39248 | 12.53826 | 3020 ft | 220 kts | 295° |
| 2026-04-22 20:28 | 55.39831 | 12.51320 | 3019 ft | 221 kts | 295° |
| 2026-04-22 20:29 | 55.40414 | 12.48823 | 3033 ft | 220 kts | 295° |
| 2026-04-22 20:29 | 55.41186 | 12.46533 | 2997 ft | 217 kts | 319° |
| 2026-04-22 20:29 | 55.42519 | 12.45368 | 3000 ft | 216 kts | 350° |
| 2026-04-22 20:29 | 55.44017 | 12.45582 | 2710 ft | 220 kts | 10° |
| 2026-04-22 20:30 | 55.45499 | 12.46355 | 2537 ft | 223 kts | 14° |
| 2026-04-22 20:30 | 55.46955 | 12.47220 | 2540 ft | 224 kts | 14° |
| 2026-04-22 20:30 | 55.48433 | 12.48118 | 2532 ft | 224 kts | 15° |
| 2026-04-22 20:30 | 55.49904 | 12.49005 | 2529 ft | 224 kts | 15° |
| 2026-04-22 20:31 | 55.51377 | 12.49901 | 2483 ft | 221 kts | 17° |
| 2026-04-22 20:31 | 55.52293 | 12.50656 | 2376 ft | 219 kts | 24° |
| 2026-04-22 20:31 | 55.53595 | 12.52007 | 1989 ft | 213 kts | 28° |
| 2026-04-22 20:31 | 55.54777 | 12.53522 | 1619 ft | 207 kts | 32° |
| 2026-04-22 20:32 | 55.55901 | 12.55045 | 1292 ft | 200 kts | 34° |
| 2026-04-22 20:32 | 55.56929 | 12.56658 | 1001 ft | 194 kts | 36° |
| 2026-04-22 20:32 | 55.57904 | 12.58193 | 855 ft | 183 kts | 36° |
| 2026-04-22 20:32 | 55.58862 | 12.59695 | 1034 ft | 185 kts | 35° |
| 2026-04-22 20:33 | 55.59818 | 12.61222 | 1234 ft | 188 kts | 37° |
| 2026-04-22 20:33 | 55.60946 | 12.62802 | 1466 ft | 220 kts | 22° |
| 2026-04-22 20:33 | 55.62398 | 12.63246 | 2248 ft | 197 kts | 354° |
| 2026-04-22 20:33 | 55.63675 | 12.62990 | 2771 ft | 179 kts | 349° |
| 2026-04-22 20:34 | 55.64900 | 12.62653 | 3014 ft | 178 kts | 348° |
| 2026-04-22 20:34 | 55.66122 | 12.62292 | 3014 ft | 177 kts | 348° |
| 2026-04-22 20:34 | 55.67303 | 12.61683 | 2996 ft | 176 kts | 326° |
| 2026-04-22 20:34 | 55.67998 | 12.59922 | 3012 ft | 183 kts | 287° |
| 2026-04-22 20:35 | 55.68050 | 12.57635 | 3043 ft | 187 kts | 273° |
| 2026-04-22 20:35 | 55.67937 | 12.55331 | 3035 ft | 186 kts | 270° |
| 2026-04-22 20:35 | 55.67799 | 12.53043 | 3021 ft | 186 kts | 270° |
| 2026-04-22 20:35 | 55.67663 | 12.50786 | 3020 ft | 187 kts | 270° |
| 2026-04-22 20:36 | 55.67529 | 12.48476 | 3015 ft | 187 kts | 270° |
| 2026-04-22 20:36 | 55.67397 | 12.46183 | 3015 ft | 187 kts | 270° |
| 2026-04-22 20:36 | 55.67263 | 12.43885 | 3016 ft | 187 kts | 270° |
| 2026-04-22 20:36 | 55.67134 | 12.41594 | 3021 ft | 187 kts | 270° |
| 2026-04-22 20:37 | 55.67006 | 12.39291 | 3009 ft | 187 kts | 270° |
| 2026-04-22 20:37 | 55.66879 | 12.36988 | 3014 ft | 188 kts | 268° |
| 2026-04-22 20:37 | 55.66364 | 12.34826 | 3000 ft | 200 kts | 233° |
| 2026-04-22 20:37 | 55.65197 | 12.33391 | 3044 ft | 207 kts | 213° |
| 2026-04-22 20:38 | 55.63903 | 12.32262 | 3019 ft | 207 kts | 210° |
| 2026-04-22 20:38 | 55.62595 | 12.31180 | 3020 ft | 208 kts | 210° |
| 2026-04-22 20:38 | 55.61279 | 12.30107 | 3021 ft | 208 kts | 210° |
| 2026-04-22 20:38 | 55.59965 | 12.29034 | 3023 ft | 207 kts | 210° |
| 2026-04-22 20:39 | 55.58656 | 12.27961 | 3024 ft | 207 kts | 210° |
| 2026-04-22 20:39 | 55.57361 | 12.26900 | 3023 ft | 208 kts | 210° |
| 2026-04-22 20:39 | 55.55961 | 12.26200 | 3009 ft | 214 kts | 182° |
| 2026-04-22 20:39 | 55.54485 | 12.26651 | 3047 ft | 217 kts | 167° |
| 2026-04-22 20:40 | 55.53030 | 12.27379 | 3026 ft | 217 kts | 165° |
| 2026-04-22 20:40 | 55.51585 | 12.28149 | 3025 ft | 217 kts | 165° |
| 2026-04-22 20:40 | 55.50143 | 12.28923 | 3022 ft | 217 kts | 165° |
| 2026-04-22 20:40 | 55.48692 | 12.29698 | 3034 ft | 217 kts | 164° |
| 2026-04-22 20:41 | 55.47403 | 12.30965 | 3015 ft | 216 kts | 132° |
| 2026-04-22 20:41 | 55.46755 | 12.33285 | 3018 ft | 211 kts | 92° |
| 2026-04-22 20:41 | 55.46914 | 12.35783 | 3053 ft | 203 kts | 69° |
| 2026-04-22 20:41 | 55.47330 | 12.38163 | 3025 ft | 199 kts | 65° |
| 2026-04-22 20:42 | 55.47765 | 12.40428 | 3010 ft | 193 kts | 65° |
| 2026-04-22 20:42 | 55.48271 | 12.42601 | 3017 ft | 188 kts | 54° |
| 2026-04-22 20:42 | 55.49016 | 12.44422 | 2935 ft | 178 kts | 42° |
| 2026-04-22 20:42 | 55.49891 | 12.45963 | 2541 ft | 178 kts | 36° |
| 2026-04-22 20:43 | 55.50823 | 12.47380 | 2268 ft | 176 kts | 34° |
| 2026-04-22 20:43 | 55.51748 | 12.48772 | 2022 ft | 177 kts | 34° |
| 2026-04-22 20:43 | 55.52674 | 12.50191 | 1771 ft | 173 kts | 35° |
| 2026-04-22 20:43 | 55.53548 | 12.51554 | 1510 ft | 161 kts | 35° |
| 2026-04-22 20:44 | 55.54354 | 12.52814 | 1308 ft | 148 kts | 33° |
| 2026-04-22 20:44 | 55.55111 | 12.53987 | 1106 ft | 143 kts | 33° |
| 2026-04-22 20:44 | 55.55865 | 12.55146 | 920 ft | 144 kts | 34° |
| 2026-04-22 20:44 | 55.56623 | 12.56320 | 731 ft | 146 kts | 36° |
| 2026-04-22 20:45 | 55.57391 | 12.57514 | 545 ft | 147 kts | 37° |
| 2026-04-22 20:45 | 55.58147 | 12.58693 | 335 ft | 147 kts | 37° |
| 2026-04-22 20:45 | 55.58917 | 12.59887 | 140 ft | 146 kts | 37° |
| 2026-04-22 20:45 | 55.59667 | 12.61043 | 27 ft | 130 kts | 40° |
| 2026-04-22 20:46 | 55.60468 | 12.62282 | 27 ft | 28 kts | 41° |
| 2026-04-22 20:46 | 55.60614 | 12.62506 | 29 ft | 28 kts | 41° |
| 2026-04-22 20:46 | 55.60763 | 12.62739 | 28 ft | 29 kts | 41° |
| 2026-04-22 20:47 | 55.60919 | 12.62980 | 27 ft | 30 kts | 41° |
| 2026-04-22 20:47 | 55.61059 | 12.63196 | 29 ft | 23 kts | 41° |
| 2026-04-22 20:47 | 55.61133 | 12.63306 | 29 ft | 10 kts | 36° |
| 2026-04-22 20:47 | 55.61206 | 12.63414 | 30 ft | 21 kts | 42° |
| 2026-04-22 20:48 | 55.61332 | 12.63617 | 28 ft | 26 kts | 42° |
| 2026-04-22 20:48 | 55.61468 | 12.63829 | 27 ft | 24 kts | 40° |
| 2026-04-22 20:48 | 55.61588 | 12.64012 | 28 ft | 16 kts | 41° |
| 2026-04-22 20:48 | 55.61660 | 12.64075 | 29 ft | 13 kts | 4° |
| 2026-04-22 20:49 | 55.61778 | 12.64077 | 26 ft | 19 kts | 356° |
| 2026-04-22 20:49 | 55.61868 | 12.64084 | 25 ft | 10 kts | 20° |
| 2026-04-22 20:49 | 55.61914 | 12.64114 | 28 ft | 9 kts | 20° |
| 2026-04-22 20:49 | 55.61973 | 12.64157 | 30 ft | 9 kts | 24° |
| 2026-04-22 20:50 | 55.62041 | 12.64212 | 27 ft | 11 kts | 24° |
| 2026-04-22 20:50 | 55.62090 | 12.64252 | 29 ft | 9 kts | 25° |
| 2026-04-22 20:50 | 55.62141 | 12.64294 | 27 ft | 8 kts | 26° |
| 2026-04-22 20:50 | 55.62186 | 12.64333 | 24 ft | 6 kts | 26° |
| 2026-04-22 20:51 | 55.62240 | 12.64375 | 25 ft | 10 kts | 19° |
| 2026-04-22 20:51 | 55.62314 | 12.64412 | 29 ft | 12 kts | 14° |
| 2026-04-22 20:51 | 55.62365 | 12.64436 | 29 ft | 4 kts | 14° |
| 2026-04-22 20:51 | 55.62369 | 12.64438 | 29 ft | 0 kts | 14° |
| 2026-04-22 20:52 | 55.62371 | 12.64438 | 29 ft | 1 kts | 14° |
| 2026-04-22 20:52 | 55.62388 | 12.64446 | 27 ft | 4 kts | 14° |
| 2026-04-22 20:52 | 55.62425 | 12.64465 | 25 ft | 5 kts | 17° |
| 2026-04-22 20:52 | 55.62465 | 12.64480 | 27 ft | 6 kts | 9° |
| 2026-04-22 20:53 | 55.62504 | 12.64500 | 29 ft | 6 kts | 19° |
| 2026-04-22 20:53 | 55.62530 | 12.64517 | 27 ft | 3 kts | 22° |
| 2026-04-22 20:53 | 55.62545 | 12.64529 | 27 ft | 3 kts | 24° |
| 2026-04-22 20:53 | 55.62556 | 12.64538 | 27 ft | 1 kts | 24° |
| 2026-04-22 20:54 | 55.62560 | 12.64541 | 28 ft | 0 kts | 24° |